Time;durP1;ratioP1;P1;durP2;ratioP2;P2;SDS_P1;SDS_P2;PMS_P1;PMS_P2;Temp;Humidity;BMP_temperature;BMP_pressure;BME280_temperature;BME280_humidity;BME280_pressure;Samples;Min_cycle;Max_cycle;Signal;HPM_P1;HPM_P2
2024/01/13 00:00:18;;;;;;;15.07;3.15;;;14.60;72.00;;;;;;4221702;27;20062;-46
2024/01/13 00:03:00;;;;;;;;;;;14.70;72.10;;;;;;4203635;27;20502;-46
2024/01/13 00:05:41;;;;;;;34.53;3.85;;;14.70;71.90;;;;;;4222574;27;19927;-46
2024/01/13 00:08:22;;;;;;;19.20;2.55;;;14.70;72.20;;;;;;4207976;27;20063;-47
2024/01/13 00:11:09;;;;;;;16.35;2.75;;;14.70;72.20;;;;;;4209256;27;20055;-46
2024/01/13 00:13:51;;;;;;;27.27;2.83;;;14.80;72.20;;;;;;4220750;27;20191;-47
2024/01/13 00:16:32;;;;;;;17.75;2.03;;;14.90;71.80;;;;;;4221807;27;20525;-45
2024/01/13 00:19:13;;;;;;;7.90;1.85;;;15.00;71.40;;;;;;4221641;27;20054;-46
2024/01/13 00:21:54;;;;;;;10.65;2.70;;;15.10;71.00;;;;;;4203970;28;20059;-47
2024/01/13 00:24:35;;;;;;;16.83;2.42;;;15.20;70.90;;;;;;4205233;28;20062;-47
2024/01/13 00:27:16;;;;;;;17.00;2.83;;;15.20;70.60;;;;;;4204240;28;20047;-49
2024/01/13 00:29:58;;;;;;;18.33;2.58;;;15.20;70.60;;;;;;4215871;27;20055;-46
2024/01/13 00:32:39;;;;;;;18.00;3.05;;;15.10;70.70;;;;;;4204245;27;20181;-45
2024/01/13 00:35:20;;;;;;;4.90;1.70;;;15.20;70.90;;;;;;4204125;27;20133;-47
2024/01/13 00:38:01;;;;;;;6.07;2.00;;;15.30;70.70;;;;;;4203530;27;20051;-47
2024/01/13 00:40:41;;;;;;;23.75;2.92;;;15.40;70.50;;;;;;4212083;27;20631;-47
2024/01/13 00:43:23;;;;;;;12.45;2.88;;;15.40;70.20;;;;;;4188342;28;20226;-46
2024/01/13 00:46:05;;;;;;;4.45;1.52;;;15.40;70.00;;;;;;4204213;27;20055;-48
2024/01/13 00:48:46;;;;;;;12.55;2.45;;;15.40;70.00;;;;;;4204880;28;20055;-46
2024/01/13 00:51:28;;;;;;;12.30;3.03;;;15.50;70.10;;;;;;4204369;28;20128;-46
2024/01/13 00:54:10;;;;;;;22.60;2.75;;;15.50;70.00;;;;;;4204975;28;20051;-49
2024/01/13 00:56:53;;;;;;;8.10;2.00;;;15.60;69.80;;;;;;4203234;28;21225;-51
2024/01/13 00:59:34;;;;;;;19.55;3.03;;;15.60;69.60;;;;;;4204474;28;20051;-44
2024/01/13 01:02:16;;;;;;;15.20;2.53;;;15.70;70.40;;;;;;4204470;28;20058;-43
2024/01/13 01:04:57;;;;;;;17.05;2.75;;;15.60;69.50;;;;;;4211121;27;20300;-42
2024/01/13 01:07:38;;;;;;;9.50;1.80;;;15.70;69.60;;;;;;4220550;27;20055;-44
2024/01/13 01:10:19;;;;;;;15.63;2.58;;;15.70;69.30;;;;;;4230903;27;20121;-43
2024/01/13 01:13:00;;;;;;;9.07;2.08;;;15.80;69.00;;;;;;4237908;27;20054;-44
2024/01/13 01:15:42;;;;;;;9.93;2.10;;;15.80;69.00;;;;;;4237753;27;20402;-42
2024/01/13 01:18:24;;;;;;;7.53;1.98;;;15.90;69.00;;;;;;4203239;28;20067;-43
2024/01/13 01:21:14;;;;;;;8.85;1.88;;;15.90;68.90;;;;;;4203752;28;20482;-44
2024/01/13 01:23:56;;;;;;;17.45;2.05;;;16.00;68.50;;;;;;4204345;28;20502;-44
2024/01/13 01:26:37;;;;;;;17.88;2.90;;;16.00;68.30;;;;;;4204264;28;20521;-44
2024/01/13 01:29:19;;;;;;;13.05;2.65;;;16.00;68.10;;;;;;4207258;27;20055;-44
2024/01/13 01:32:00;;;;;;;;;;;16.00;68.10;;;;;;4221179;27;20410;-53
2024/01/13 01:34:42;;;;;;;13.68;1.77;;;16.00;68.30;;;;;;4220701;27;19930;-53
2024/01/13 01:37:23;;;;;;;15.98;2.40;;;16.10;68.30;;;;;;4219851;27;20042;-54
2024/01/13 01:40:06;;;;;;;12.45;2.22;;;16.00;68.10;;;;;;4205395;28;20078;-55
2024/01/13 01:42:47;;;;;;;18.38;2.58;;;16.00;68.20;;;;;;4203855;28;20059;-52
2024/01/13 01:45:29;;;;;;;14.50;2.58;;;16.00;68.20;;;;;;4203492;28;20051;-56
2024/01/13 01:48:10;;;;;;;15.10;2.40;;;16.10;68.30;;;;;;4205220;27;20585;-54
2024/01/13 01:50:59;;;;;;;12.30;1.98;;;16.00;68.10;;;;;;4213330;27;20435;-55
2024/01/13 01:53:40;;;;;;;3.70;1.70;;;16.10;68.90;;;;;;4202763;28;20074;-53
2024/01/13 01:56:23;;;;;;;;;;;16.10;67.90;;;;;;4204310;28;20055;-54
2024/01/13 01:59:04;;;;;;;15.15;2.45;;;16.10;68.00;;;;;;4203350;28;20382;-55
2024/01/13 02:01:46;;;;;;;8.13;1.20;;;16.00;68.10;;;;;;4203237;28;20059;-55
2024/01/13 02:04:27;;;;;;;10.13;2.50;;;16.00;68.10;;;;;;4203612;28;20050;-55
2024/01/13 02:07:11;;;;;;;14.90;2.03;;;15.90;68.10;;;;;;4204153;28;20073;-55
2024/01/13 02:09:52;;;;;;;17.35;1.90;;;15.90;68.40;;;;;;4204159;28;20047;-52
2024/01/13 02:12:34;;;;;;;8.20;1.58;;;15.90;68.60;;;;;;4203531;28;20051;-53
2024/01/13 02:15:15;;;;;;;5.30;1.27;;;15.90;68.50;;;;;;4214082;27;20188;-56
2024/01/13 02:17:56;;;;;;;12.73;1.55;;;15.90;68.60;;;;;;4220369;27;20454;-54
2024/01/13 02:20:37;;;;;;;10.50;1.60;;;16.00;68.50;;;;;;4203941;28;20069;-52
2024/01/13 02:23:19;;;;;;;6.90;1.30;;;16.10;68.50;;;;;;4203055;28;20046;-52
2024/01/13 02:26:00;;;;;;;7.50;1.80;;;16.10;68.00;;;;;;4215819;27;20059;-52
2024/01/13 02:28:41;;;;;;;15.65;1.80;;;16.20;67.80;;;;;;4203254;28;20063;-56
2024/01/13 02:31:24;;;;;;;8.70;1.83;;;16.20;67.60;;;;;;4202454;28;20453;-52
2024/01/13 02:34:06;;;;;;;5.95;1.35;;;16.20;67.30;;;;;;4203169;28;20096;-52
2024/01/13 02:36:47;;;;;;;8.60;2.08;;;16.20;67.40;;;;;;4203196;28;20047;-55
2024/01/13 02:39:29;;;;;;;7.70;1.75;;;16.10;67.70;;;;;;4215829;27;20509;-52
2024/01/13 02:42:10;;;;;;;9.45;1.98;;;16.20;68.60;;;;;;4200987;28;20116;-53
2024/01/13 02:44:51;;;;;;;19.73;3.30;;;16.20;67.60;;;;;;4203655;28;20055;-54
2024/01/13 02:47:44;;;;;;;5.75;1.15;;;16.20;67.60;;;;;;4206525;27;20478;-54
2024/01/13 02:50:25;;;;;;;18.13;3.38;;;16.20;67.60;;;;;;4204929;28;20070;-53
2024/01/13 02:53:06;;;;;;;10.02;3.00;;;16.30;67.60;;;;;;4206365;28;20512;-54
2024/01/13 02:55:48;;;;;;;13.85;1.55;;;16.30;68.30;;;;;;4206259;28;20059;-52
2024/01/13 02:58:29;;;;;;;10.63;1.77;;;16.30;67.30;;;;;;4205971;28;20109;-57
2024/01/13 03:01:17;;;;;;;15.55;2.10;;;16.30;67.20;;;;;;4205848;28;20043;-54
2024/01/13 03:03:59;;;;;;;8.95;1.83;;;16.20;67.40;;;;;;4205310;28;20059;-55
2024/01/13 03:06:40;;;;;;;9.70;3.28;;;16.20;68.40;;;;;;4210707;27;20063;-52
2024/01/13 03:09:21;;;;;;;8.63;1.52;;;16.20;68.30;;;;;;4205753;28;20055;-54
2024/01/13 03:12:04;;;;;;;12.32;1.77;;;16.30;67.60;;;;;;4206260;28;20055;-56
2024/01/13 03:14:45;;;;;;;11.25;1.95;;;16.30;67.50;;;;;;4206329;27;20047;-56
2024/01/13 03:17:26;;;;;;;11.30;2.25;;;16.40;67.10;;;;;;4189507;28;20056;-56
2024/01/13 03:20:10;;;;;;;20.30;2.65;;;16.50;66.80;;;;;;4191276;27;20086;-56
2024/01/13 03:22:51;;;;;;;12.20;2.25;;;16.50;66.60;;;;;;4189584;28;20051;-54
2024/01/13 03:25:31;;;;;;;20.57;1.83;;;16.50;66.50;;;;;;4213144;27;20557;-55
2024/01/13 03:28:14;;;;;;;2.58;0.85;;;16.40;66.70;;;;;;4205884;28;20058;-57
2024/01/13 03:31:02;;;;;;;6.65;1.40;;;16.40;66.60;;;;;;4206110;28;20091;-55
2024/01/13 03:33:43;;;;;;;5.25;1.55;;;16.40;66.60;;;;;;4205682;28;20744;-53
2024/01/13 03:36:25;;;;;;;12.68;1.17;;;16.40;66.60;;;;;;4213415;27;20055;-52
2024/01/13 03:39:06;;;;;;;1.38;0.98;;;16.40;66.90;;;;;;4221941;27;20043;-54
2024/01/13 03:41:49;;;;;;;7.00;1.02;;;16.40;66.90;;;;;;4221801;27;20104;-54
2024/01/13 03:44:31;;;;;;;22.25;2.28;;;16.40;66.80;;;;;;4221893;27;20507;-54
2024/01/13 03:47:12;;;;;;;1.83;0.60;;;16.40;66.60;;;;;;4205508;28;20055;-56
2024/01/13 03:49:53;;;;;;;9.65;1.30;;;16.50;66.60;;;;;;4205448;28;20078;-54
2024/01/13 03:52:34;;;;;;;8.00;1.33;;;16.40;66.60;;;;;;4205478;28;20051;-52
2024/01/13 03:55:15;;;;;;;18.52;1.77;;;16.50;66.70;;;;;;4205420;28;20514;-52
2024/01/13 03:57:57;;;;;;;2.45;0.95;;;16.50;66.50;;;;;;4204996;28;20136;-55
2024/01/13 04:00:39;;;;;;;14.10;1.63;;;16.50;66.20;;;;;;4205242;28;20129;-56
2024/01/13 04:03:21;;;;;;;12.80;1.67;;;16.50;66.40;;;;;;4188792;28;20048;-53
2024/01/13 04:06:02;;;;;;;9.73;1.95;;;16.50;66.40;;;;;;4199866;28;20490;-54
2024/01/13 04:08:44;;;;;;;3.42;1.27;;;16.60;66.20;;;;;;4204336;27;20059;-55
2024/01/13 04:11:25;;;;;;;13.40;1.35;;;16.60;65.90;;;;;;4188444;28;20059;-55
2024/01/13 04:14:06;;;;;;;3.35;0.93;;;16.60;65.90;;;;;;4187412;27;20384;-54
2024/01/13 04:16:48;;;;;;;6.25;2.08;;;16.60;66.00;;;;;;4187363;27;20722;-56
2024/01/13 04:19:29;;;;;;;9.02;1.60;;;16.60;66.30;;;;;;4188706;28;20434;-55
2024/01/13 04:22:10;;;;;;;1.90;1.17;;;16.60;66.40;;;;;;4188469;28;20040;-55
2024/01/13 04:24:51;;;;;;;14.70;1.42;;;16.60;66.20;;;;;;4190472;27;20063;-54
2024/01/13 04:27:33;;;;;;;4.80;1.00;;;16.60;66.10;;;;;;4204104;27;20058;-51
2024/01/13 04:30:14;;;;;;;19.02;3.05;;;16.60;66.10;;;;;;4204712;28;20458;-53
2024/01/13 04:32:57;;;;;;;7.47;1.90;;;16.50;66.20;;;;;;4221258;27;20078;-55
2024/01/13 04:35:38;;;;;;;4.68;1.02;;;16.50;66.50;;;;;;4217692;27;20207;-56
2024/01/13 04:38:20;;;;;;;9.75;2.13;;;16.60;66.50;;;;;;4205235;28;20128;-56
2024/01/13 04:41:01;;;;;;;5.53;1.25;;;16.60;67.00;;;;;;4204538;28;20059;-56
2024/01/13 04:43:42;;;;;;;16.75;1.83;;;16.60;66.00;;;;;;4214010;27;20046;-56
2024/01/13 04:46:23;;;;;;;6.03;1.10;;;16.60;66.10;;;;;;4204840;28;20096;-55
2024/01/13 04:49:05;;;;;;;12.95;1.63;;;16.60;66.20;;;;;;4210420;27;20059;-55
2024/01/13 04:51:46;;;;;;;7.43;1.75;;;16.60;66.40;;;;;;4221417;27;20177;-56
2024/01/13 04:54:28;;;;;;;14.13;2.17;;;16.60;66.30;;;;;;4221618;27;20399;-56
2024/01/13 04:57:09;;;;;;;4.47;1.25;;;16.60;66.10;;;;;;4222002;27;20051;-57
2024/01/13 04:59:50;;;;;;;11.52;1.75;;;16.60;66.10;;;;;;4208778;27;20109;-55
2024/01/13 05:02:31;;;;;;;8.32;1.38;;;16.60;66.00;;;;;;4205345;27;20548;-56
2024/01/13 05:05:17;;;;;;;12.95;1.30;;;16.70;66.00;;;;;;4207942;27;20411;-57
2024/01/13 05:07:57;;;;;;;10.48;1.30;;;16.70;65.90;;;;;;4202374;28;20505;-55
2024/01/13 05:10:39;;;;;;;8.70;1.77;;;16.60;65.80;;;;;;4219349;27;20058;-53
2024/01/13 05:13:19;;;;;;;4.57;1.40;;;16.60;65.90;;;;;;4204935;28;20075;-54
2024/01/13 05:16:00;;;;;;;4.50;0.90;;;16.60;66.10;;;;;;4205281;28;20130;-55
2024/01/13 05:18:42;;;;;;;2.33;1.10;;;16.70;66.80;;;;;;4204516;28;20391;-53
2024/01/13 05:21:24;;;;;;;3.75;1.08;;;16.70;65.70;;;;;;4187597;28;20063;-55
2024/01/13 05:24:05;;;;;;;4.28;1.33;;;16.70;65.70;;;;;;4202887;27;20181;-45
2024/01/13 05:26:46;;;;;;;4.75;0.85;;;16.70;65.70;;;;;;4203202;28;20050;-44
2024/01/13 05:29:27;;;;;;;3.78;1.30;;;16.70;65.60;;;;;;4227618;27;20046;-45
2024/01/13 05:32:08;;;;;;;7.63;2.33;;;16.70;65.50;;;;;;4237617;27;20103;-45
2024/01/13 05:34:49;;;;;;;6.57;1.50;;;16.70;65.70;;;;;;4203662;28;20422;-44
2024/01/13 05:37:32;;;;;;;1.80;1.05;;;16.80;65.70;;;;;;4202352;28;20059;-45
2024/01/13 05:40:13;;;;;;;1.17;1.10;;;16.70;65.80;;;;;;4203910;28;20073;-44
2024/01/13 05:42:54;;;;;;;9.73;1.88;;;16.70;65.70;;;;;;4203951;28;20128;-44
2024/01/13 05:45:35;;;;;;;7.40;1.33;;;16.70;65.80;;;;;;4203037;28;20051;-44
2024/01/13 05:48:16;;;;;;;1.65;0.80;;;16.70;65.90;;;;;;4203823;28;20050;-43
2024/01/13 05:50:58;;;;;;;6.60;1.75;;;16.70;66.00;;;;;;4202794;28;20059;-44
2024/01/13 05:53:40;;;;;;;9.33;1.17;;;16.70;65.80;;;;;;4203344;28;20518;-44
2024/01/13 05:56:21;;;;;;;6.57;1.40;;;16.70;65.80;;;;;;4203721;28;20066;-44
2024/01/13 05:59:02;;;;;;;7.88;1.00;;;16.70;65.90;;;;;;4212394;27;20517;-44
2024/01/13 06:01:42;;;;;;;13.18;2.35;;;16.70;66.00;;;;;;4203011;28;20542;-44
2024/01/13 06:04:24;;;;;;;7.63;1.60;;;16.70;66.20;;;;;;4215886;27;20421;-45
2024/01/13 06:07:05;;;;;;;4.85;1.38;;;16.70;66.00;;;;;;4203321;28;20059;-45
2024/01/13 06:09:48;;;;;;;2.72;1.25;;;16.70;66.00;;;;;;4189445;27;20050;-44
2024/01/13 06:12:29;;;;;;;3.42;0.90;;;16.70;65.90;;;;;;4203495;28;20051;-44
2024/01/13 06:15:10;;;;;;;6.03;1.30;;;16.80;65.80;;;;;;4186691;28;20129;-44
2024/01/13 06:17:51;;;;;;;3.25;1.27;;;16.80;65.70;;;;;;4196846;27;20462;-44
2024/01/13 06:20:32;;;;;;;1.95;0.77;;;16.70;65.60;;;;;;4202247;27;20055;-43
2024/01/13 06:23:13;;;;;;;11.52;1.55;;;16.70;65.60;;;;;;4187042;28;20051;-44
2024/01/13 06:25:55;;;;;;;3.95;1.13;;;16.60;65.70;;;;;;4186158;28;20051;-44
2024/01/13 06:28:36;;;;;;;5.65;1.30;;;16.50;65.80;;;;;;4199980;27;20490;-44
2024/01/13 06:31:17;;;;;;;4.07;1.48;;;16.50;66.40;;;;;;4203438;28;20100;-44
2024/01/13 06:33:58;;;;;;;8.68;1.27;;;16.40;66.80;;;;;;4202457;28;20059;-44
2024/01/13 06:36:39;;;;;;;3.78;1.00;;;16.50;67.00;;;;;;4201449;28;20142;-44
2024/01/13 06:39:20;;;;;;;3.72;0.88;;;16.60;67.40;;;;;;4194792;28;20081;-44
2024/01/13 06:42:06;;;;;;;5.82;1.33;;;16.70;66.10;;;;;;4217343;27;20519;-44
2024/01/13 06:44:48;;;;;;;2.55;0.90;;;16.70;65.80;;;;;;4203086;28;20083;-44
2024/01/13 06:47:30;;;;;;;5.30;1.60;;;16.70;66.00;;;;;;4203446;28;20055;-44
2024/01/13 06:50:10;;;;;;;1.85;0.80;;;16.70;65.70;;;;;;4216025;27;20116;-44
2024/01/13 06:52:52;;;;;;;2.65;0.85;;;16.80;65.70;;;;;;4219405;27;20059;-55
2024/01/13 06:55:33;;;;;;;2.17;0.80;;;16.70;66.40;;;;;;4207283;27;20078;-55
2024/01/13 06:58:15;;;;;;;7.72;1.00;;;16.70;65.90;;;;;;4203634;28;20470;-55
2024/01/13 07:00:58;;;;;;;3.42;1.30;;;16.70;66.20;;;;;;4209121;27;20205;-56
2024/01/13 07:03:40;;;;;;;2.80;0.65;;;16.70;66.10;;;;;;4200652;28;20063;-44
2024/01/13 07:06:21;;;;;;;0.93;0.80;;;16.70;66.20;;;;;;4203298;28;20050;-44
2024/01/13 07:09:02;;;;;;;3.72;0.93;;;16.70;66.20;;;;;;4207492;28;20054;-44
2024/01/13 07:11:43;;;;;;;3.90;0.70;;;16.60;66.10;;;;;;4202739;28;20047;-44
2024/01/13 07:14:25;;;;;;;0.57;0.57;;;16.60;66.10;;;;;;4207953;27;20051;-44
2024/01/13 07:17:06;;;;;;;2.53;1.15;;;16.60;66.00;;;;;;4203938;28;20048;-44
2024/01/13 07:19:47;;;;;;;4.22;0.50;;;16.50;66.10;;;;;;4218246;27;20058;-45
2024/01/13 07:22:29;;;;;;;1.42;0.60;;;16.40;66.30;;;;;;4218831;27;20054;-44
2024/01/13 07:25:09;;;;;;;;;;;16.30;66.60;;;;;;4219558;27;20058;-44
2024/01/13 07:27:51;;;;;;;0.30;0.30;;;16.30;66.90;;;;;;4206778;27;19931;-43
2024/01/13 07:30:33;;;;;;;4.97;0.82;;;16.20;67.60;;;;;;4212704;27;20066;-44
2024/01/13 07:33:14;;;;;;;0.88;0.57;;;16.10;68.00;;;;;;4203360;28;20058;-44
2024/01/13 07:35:55;;;;;;;0.63;0.50;;;16.20;68.10;;;;;;4204049;28;20075;-44
2024/01/13 07:38:36;;;;;;;5.47;0.88;;;16.30;67.90;;;;;;4207141;28;20063;-44
2024/01/13 07:41:17;;;;;;;5.32;1.20;;;16.40;67.40;;;;;;4204720;28;20055;-53
2024/01/13 07:43:58;;;;;;;;;;;16.50;66.90;;;;;;4205914;28;20452;-52
2024/01/13 07:46:42;;;;;;;3.38;1.10;;;16.70;66.20;;;;;;4204754;28;19931;-54
2024/01/13 07:49:23;;;;;;;2.05;0.82;;;16.80;64.50;;;;;;4200832;27;20452;-53
2024/01/13 07:52:07;;;;;;;7.45;1.23;;;16.80;63.10;;;;;;4209920;27;20055;-54
2024/01/13 07:54:48;;;;;;;4.38;1.00;;;16.80;62.60;;;;;;4210020;27;20181;-52
2024/01/13 07:57:29;;;;;;;2.47;1.08;;;16.80;62.30;;;;;;4222273;27;20050;-52
2024/01/13 08:00:12;;;;;;;6.28;1.73;;;16.80;61.90;;;;;;4203480;28;20058;-51
2024/01/13 08:02:55;;;;;;;2.58;2.20;;;16.80;62.10;;;;;;4204283;28;20047;-53
2024/01/13 08:05:35;;;;;;;3.72;2.33;;;16.80;61.60;;;;;;4204839;28;20059;-51
2024/01/13 08:08:16;;;;;;;7.30;3.28;;;16.80;61.30;;;;;;4204319;28;20055;-54
2024/01/13 08:10:57;;;;;;;3.70;2.75;;;16.80;61.20;;;;;;4208156;28;20051;-54
2024/01/13 08:13:38;;;;;;;8.05;3.50;;;16.70;61.20;;;;;;4202955;27;20062;-51
2024/01/13 08:16:19;;;;;;;4.90;3.15;;;16.70;61.00;;;;;;4210184;27;20046;-53
2024/01/13 08:19:02;;;;;;;5.95;3.78;;;16.60;60.90;;;;;;4216315;27;20493;-55
2024/01/13 08:21:43;;;;;;;8.32;3.55;;;16.50;61.10;;;;;;4207587;27;20085;-50
2024/01/13 08:24:24;;;;;;;4.80;4.38;;;16.50;61.10;;;;;;4205081;28;20390;-43
2024/01/13 08:27:05;;;;;;;11.23;6.05;;;16.50;60.90;;;;;;4203636;27;20082;-42
2024/01/13 08:29:46;;;;;;;7.40;5.45;;;16.60;60.60;;;;;;4219960;27;20490;-44
2024/01/13 08:32:27;;;;;;;5.45;4.20;;;16.60;60.30;;;;;;4204886;28;20063;-42
2024/01/13 08:35:10;;;;;;;7.15;6.00;;;16.60;60.00;;;;;;4211488;27;20051;-42
2024/01/13 08:37:53;;;;;;;14.82;7.10;;;16.60;59.90;;;;;;4208017;27;20055;-44
2024/01/13 08:40:34;;;;;;;8.35;5.95;;;16.60;59.90;;;;;;4221287;27;20055;-51
2024/01/13 08:43:16;;;;;;;6.60;5.05;;;16.60;59.40;;;;;;4224645;27;20456;-48
2024/01/13 08:45:57;;;;;;;7.43;5.55;;;16.50;59.40;;;;;;4208999;27;20059;-49
2024/01/13 08:48:38;;;;;;;;;;;16.50;59.40;;;;;;4207144;28;20059;-51
2024/01/13 08:51:23;;;;;;;13.60;7.80;;;16.30;59.60;;;;;;4213465;27;19926;-49
2024/01/13 08:54:10;;;;;;;9.95;7.15;;;16.20;60.60;;;;;;4217114;27;20088;-51
2024/01/13 08:56:51;;;;;;;12.15;9.80;;;16.20;59.90;;;;;;4207955;27;20054;-49
2024/01/13 08:59:33;;;;;;;15.02;9.70;;;16.10;59.90;;;;;;4204262;27;20121;-48
2024/01/13 09:02:14;;;;;;;21.55;10.68;;;16.10;60.10;;;;;;4202223;28;20054;-48
2024/01/13 09:04:55;;;;;;;19.27;11.05;;;16.10;60.40;;;;;;4202890;28;20063;-49
2024/01/13 09:07:38;;;;;;;15.30;9.93;;;16.10;60.70;;;;;;4202974;27;20055;-58
2024/01/13 09:10:19;;;;;;;21.33;12.35;;;16.10;60.70;;;;;;4220938;27;20200;-46
2024/01/13 09:13:01;;;;;;;11.75;7.75;;;16.20;60.40;;;;;;4204110;27;20074;-46
2024/01/13 09:15:42;;;;;;;20.25;12.15;;;16.10;60.20;;;;;;4216999;27;20058;-45
2024/01/13 09:18:23;;;;;;;19.95;11.13;;;16.30;60.10;;;;;;4220010;27;20059;-56
2024/01/13 09:21:05;;;;;;;10.25;6.30;;;16.30;59.60;;;;;;4211372;27;20053;-56
2024/01/13 09:23:48;;;;;;;;;;;16.40;59.20;;;;;;4219352;27;20054;-56
2024/01/13 09:26:30;;;;;;;20.30;13.60;;;16.50;58.90;;;;;;4234439;27;19926;-46
2024/01/13 09:29:12;;;;;;;20.45;13.52;;;16.80;58.10;;;;;;4205993;27;20178;-44
2024/01/13 09:31:53;;;;;;;22.90;12.95;;;17.20;57.30;;;;;;4202316;28;20391;-56
2024/01/13 09:34:35;;;;;;;25.20;14.68;;;17.70;56.20;;;;;;4202734;28;20089;-55
2024/01/13 09:37:16;;;;;;;20.38;13.30;;;18.20;55.10;;;;;;4187984;27;20129;-46
2024/01/13 09:39:59;;;;;;;21.60;15.15;;;18.70;54.00;;;;;;4209852;27;20070;-45
2024/01/13 09:42:50;;;;;;;18.08;12.23;;;19.20;53.00;;;;;;4204772;27;20047;-45
2024/01/13 09:45:33;;;;;;;19.48;13.18;;;19.60;52.10;;;;;;4225292;27;20082;-44
2024/01/13 09:48:17;;;;;;;20.50;14.88;;;19.80;51.30;;;;;;4224341;27;20043;-45
2024/01/13 09:51:00;;;;;;;23.90;15.68;;;20.00;50.60;;;;;;4220177;27;20509;-44
2024/01/13 09:53:48;;;;;;;24.40;17.13;;;20.20;49.90;;;;;;4208777;27;20054;-52
2024/01/13 09:56:35;;;;;;;26.70;17.05;;;20.30;50.50;;;;;;4209622;27;20137;-52
2024/01/13 09:59:16;;;;;;;23.15;17.63;;;20.30;49.70;;;;;;4191251;27;20129;-51
2024/01/13 10:01:58;;;;;;;25.73;17.40;;;20.30;49.60;;;;;;4196894;27;20104;-44
2024/01/13 10:04:40;;;;;;;23.23;16.35;;;20.10;50.10;;;;;;4198267;27;20186;-52
2024/01/13 10:07:21;;;;;;;22.50;14.48;;;20.00;50.40;;;;;;4211224;27;20513;-52
2024/01/13 10:10:07;;;;;;;24.17;16.55;;;19.80;50.60;;;;;;4214645;27;20081;-52
2024/01/13 10:12:52;;;;;;;27.27;16.42;;;19.80;50.80;;;;;;4216147;27;20486;-45
2024/01/13 10:15:34;;;;;;;19.88;17.45;;;19.70;50.70;;;;;;4202750;28;20093;-45
2024/01/13 10:18:16;;;;;;;23.88;16.13;;;19.70;50.70;;;;;;4203558;27;20051;-47
2024/01/13 10:20:58;;;;;;;25.15;19.25;;;19.80;50.70;;;;;;4216871;27;20135;-47
2024/01/13 10:23:39;;;;;;;18.05;12.45;;;19.90;50.40;;;;;;4210067;27;20070;-47
2024/01/13 10:26:20;;;;;;;24.35;17.40;;;20.00;51.20;;;;;;4219974;27;20058;-53
2024/01/13 10:29:05;;;;;;;25.38;17.67;;;20.00;50.00;;;;;;4214162;27;20050;-51
2024/01/13 10:31:50;;;;;;;23.35;17.67;;;20.20;49.70;;;;;;4215337;27;20042;-48
2024/01/13 10:34:31;;;;;;;26.52;16.55;;;20.30;49.50;;;;;;4200288;27;20076;-47
2024/01/13 10:37:13;;;;;;;;;;;20.40;49.40;;;;;;4202275;28;20415;-47
2024/01/13 10:39:55;;;;;;;24.92;16.95;;;20.50;49.20;;;;;;4210925;27;20015;-50
2024/01/13 10:42:39;;;;;;;21.42;14.70;;;20.50;49.10;;;;;;4205727;27;20517;-51
2024/01/13 10:45:23;;;;;;;19.58;15.05;;;20.60;48.90;;;;;;4202553;28;20063;-53
2024/01/13 10:48:13;;;;;;;22.33;15.55;;;20.50;48.80;;;;;;4201799;28;20043;-54
2024/01/13 10:50:57;;;;;;;22.60;15.00;;;20.60;48.90;;;;;;4200381;28;20059;-50
2024/01/13 10:53:39;;;;;;;16.95;12.20;;;20.60;48.80;;;;;;4201138;28;20055;-51
2024/01/13 10:56:20;;;;;;;;;;;20.50;48.90;;;;;;4202725;28;20059;-50
2024/01/13 10:59:01;;;;;;;19.35;13.25;;;20.40;49.00;;;;;;4200755;28;19927;-53
2024/01/13 11:01:45;;;;;;;19.98;12.65;;;20.30;49.10;;;;;;4200965;28;20050;-53
2024/01/13 11:04:27;;;;;;;18.48;13.10;;;20.20;49.40;;;;;;4210013;27;20190;-47
2024/01/13 11:07:08;;;;;;;22.02;13.73;;;20.10;49.90;;;;;;4201554;28;20371;-50
2024/01/13 11:09:50;;;;;;;;;;;20.00;50.20;;;;;;4201278;28;20066;-51
2024/01/13 11:12:38;;;;;;;15.27;11.60;;;20.00;50.30;;;;;;4210501;27;20393;-50
2024/01/13 11:15:27;;;;;;;13.73;10.57;;;20.00;50.10;;;;;;4215484;27;20058;-51
2024/01/13 11:18:13;;;;;;;10.48;9.20;;;20.00;49.90;;;;;;4203890;28;20055;-50
2024/01/13 11:21:02;;;;;;;13.20;10.02;;;20.00;49.90;;;;;;4205177;28;20502;-50
2024/01/13 11:23:46;;;;;;;12.80;9.73;;;20.00;49.70;;;;;;4219348;27;20054;-50
2024/01/13 11:26:34;;;;;;;14.32;8.80;;;20.10;49.50;;;;;;4204829;27;20129;-51
2024/01/13 11:29:20;;;;;;;10.77;7.40;;;20.10;49.60;;;;;;4210538;27;20679;-51
2024/01/13 11:32:02;;;;;;;9.85;8.00;;;20.00;50.30;;;;;;4213667;27;20095;-47
2024/01/13 11:34:48;;;;;;;8.60;7.75;;;20.10;50.70;;;;;;4216589;27;20394;-48
2024/01/13 11:37:29;;;;;;;7.40;6.15;;;20.10;50.50;;;;;;4216180;27;20087;-47
2024/01/13 11:40:13;;;;;;;8.63;6.97;;;20.10;50.40;;;;;;4204402;28;20055;-46
2024/01/13 11:43:00;;;;;;;10.00;7.40;;;20.10;50.00;;;;;;4193953;28;20186;-47
2024/01/13 11:45:42;;;;;;;10.07;6.40;;;20.10;50.00;;;;;;4186854;28;20059;-48
2024/01/13 11:48:37;;;;;;;6.97;5.88;;;20.10;49.80;;;;;;4186854;28;20055;-54
2024/01/13 11:51:23;;;;;;;20.55;7.65;;;20.00;49.70;;;;;;4207664;27;20415;-53
2024/01/13 11:54:10;;;;;;;10.10;5.72;;;19.90;49.80;;;;;;4214525;27;20203;-54
2024/01/13 11:56:51;;;;;;;10.48;5.82;;;19.80;50.10;;;;;;4218940;27;20773;-51
2024/01/13 11:59:32;;;;;;;9.63;6.18;;;19.70;50.40;;;;;;4197276;28;20097;-48
2024/01/13 12:02:13;;;;;;;9.43;5.53;;;19.60;50.50;;;;;;4214044;28;20055;-50
2024/01/13 12:04:54;;;;;;;8.57;5.90;;;19.60;51.20;;;;;;4187952;28;20064;-53
2024/01/13 12:07:36;;;;;;;;;;;19.60;50.50;;;;;;4229726;27;20389;-52
2024/01/13 12:10:18;;;;;;;6.65;5.63;;;19.60;50.50;;;;;;4209825;27;19931;-46
2024/01/13 12:13:01;;;;;;;;;;;19.70;50.50;;;;;;4207673;27;20059;-46
2024/01/13 12:15:45;;;;;;;6.85;5.30;;;19.70;50.40;;;;;;4190418;27;19927;-47
2024/01/13 12:18:26;;;;;;;5.95;5.20;;;19.70;50.40;;;;;;4203495;27;20051;-51
2024/01/13 12:21:08;;;;;;;5.57;4.75;;;19.80;50.40;;;;;;4204363;27;20185;-51
2024/01/13 12:23:51;;;;;;;7.60;4.43;;;19.80;50.50;;;;;;4205203;27;20051;-51
2024/01/13 12:26:32;;;;;;;7.68;4.80;;;19.90;50.60;;;;;;4189768;28;20206;-52
2024/01/13 12:29:14;;;;;;;4.45;4.05;;;19.90;50.40;;;;;;4203054;28;20058;-54
2024/01/13 12:31:56;;;;;;;5.00;4.38;;;20.00;51.20;;;;;;4190379;28;20055;-54
2024/01/13 12:34:39;;;;;;;4.85;4.10;;;20.00;50.40;;;;;;4204533;27;20051;-52
2024/01/13 12:37:20;;;;;;;3.45;3.00;;;20.10;50.40;;;;;;4204758;28;20072;-51
2024/01/13 12:40:05;;;;;;;3.28;2.97;;;20.10;50.30;;;;;;4207989;28;20510;-49
2024/01/13 12:42:46;;;;;;;4.60;3.47;;;20.00;50.10;;;;;;4215315;27;20581;-47
2024/01/13 12:45:28;;;;;;;4.28;3.13;;;20.00;50.40;;;;;;4202379;28;20605;-46
2024/01/13 12:48:09;;;;;;;;;;;19.90;50.50;;;;;;4214633;27;20702;-46
2024/01/13 12:50:51;;;;;;;2.80;2.58;;;19.90;50.60;;;;;;4218946;27;20681;-48
2024/01/13 12:53:32;;;;;;;3.47;2.90;;;19.90;51.20;;;;;;4219275;27;20103;-47
2024/01/13 12:56:16;;;;;;;;;;;19.90;50.40;;;;;;4204972;28;20051;-47
2024/01/13 12:58:57;;;;;;;3.00;2.33;;;19.90;50.50;;;;;;4202449;28;19927;-47
2024/01/13 13:01:38;;;;;;;3.25;2.53;;;19.90;50.40;;;;;;4208155;27;20063;-49
2024/01/13 13:04:19;;;;;;;3.75;2.58;;;19.90;50.70;;;;;;4214401;27;20410;-51
2024/01/13 13:07:01;;;;;;;2.30;1.98;;;19.90;50.50;;;;;;4213436;27;20055;-51
2024/01/13 13:09:42;;;;;;;1.80;1.70;;;20.00;50.60;;;;;;4214541;27;20054;-48
2024/01/13 13:12:25;;;;;;;2.65;1.90;;;20.00;50.50;;;;;;4202970;27;20067;-49
2024/01/13 13:15:07;;;;;;;1.75;1.65;;;19.90;50.50;;;;;;4202525;28;20100;-47
2024/01/13 13:17:52;;;;;;;1.92;1.83;;;19.90;50.70;;;;;;4206021;28;20050;-46
2024/01/13 13:20:33;;;;;;;2.38;1.15;;;19.90;50.70;;;;;;4213150;27;20062;-46
2024/01/13 13:23:16;;;;;;;4.35;1.77;;;19.90;50.60;;;;;;4217832;27;20050;-47
2024/01/13 13:25:57;;;;;;;2.42;1.38;;;19.90;50.40;;;;;;4202655;27;20403;-51
2024/01/13 13:28:41;;;;;;;2.45;1.92;;;19.90;50.40;;;;;;4200086;27;20101;-50
2024/01/13 13:31:23;;;;;;;1.70;1.60;;;19.90;50.40;;;;;;4214577;27;20116;-50
2024/01/13 13:34:03;;;;;;;2.42;1.67;;;19.90;50.40;;;;;;4213490;27;20051;-53
2024/01/13 13:36:45;;;;;;;1.90;1.52;;;19.90;50.60;;;;;;4207166;27;20064;-52
2024/01/13 13:39:27;;;;;;;4.45;1.63;;;19.90;50.60;;;;;;4216692;27;20569;-51
2024/01/13 13:42:08;;;;;;;2.42;1.42;;;19.90;50.60;;;;;;4190603;28;20070;-54
2024/01/13 13:44:50;;;;;;;3.25;1.80;;;19.90;50.60;;;;;;4195233;27;20082;-53
2024/01/13 13:47:36;;;;;;;2.17;1.80;;;19.90;50.60;;;;;;4201930;28;20138;-51
2024/01/13 13:50:17;;;;;;;;;;;19.90;50.60;;;;;;4184311;28;20113;-51
2024/01/13 13:52:58;;;;;;;2.65;1.38;;;19.80;50.90;;;;;;4186456;28;20295;-51
2024/01/13 13:55:39;;;;;;;3.13;1.35;;;19.70;51.00;;;;;;4185698;28;20544;-54
2024/01/13 13:58:20;;;;;;;2.85;1.33;;;19.70;51.20;;;;;;4186985;28;20066;-50
2024/01/13 14:01:03;;;;;;;1.33;1.10;;;19.70;51.40;;;;;;4185266;28;20059;-50